sensor_id;sensor_type;location;lat;lon;timestamp;temperature;humidity
10451;DHT22;5273;51.290;6.918;2023-06-14T00:01:59;19.60;47.80
10451;DHT22;5273;51.290;6.918;2023-06-14T00:04:26;19.60;47.70
10451;DHT22;5273;51.290;6.918;2023-06-14T00:06:54;19.60;47.60
10451;DHT22;5273;51.290;6.918;2023-06-14T00:09:22;19.60;47.40
10451;DHT22;5273;51.290;6.918;2023-06-14T00:11:49;19.60;47.60
10451;DHT22;5273;51.290;6.918;2023-06-14T00:14:16;19.60;47.70
10451;DHT22;5273;51.290;6.918;2023-06-14T00:16:42;19.50;48.10
10451;DHT22;5273;51.290;6.918;2023-06-14T00:19:11;19.50;48.50
10451;DHT22;5273;51.290;6.918;2023-06-14T00:21:38;19.40;49.30
10451;DHT22;5273;51.290;6.918;2023-06-14T00:24:07;19.40;49.10
10451;DHT22;5273;51.290;6.918;2023-06-14T00:26:34;19.30;49.50
10451;DHT22;5273;51.290;6.918;2023-06-14T00:29:00;19.20;50.00
10451;DHT22;5273;51.290;6.918;2023-06-14T00:31:27;19.20;50.10
10451;DHT22;5273;51.290;6.918;2023-06-14T00:33:54;19.10;50.50
10451;DHT22;5273;51.290;6.918;2023-06-14T00:36:22;19.00;50.50
10451;DHT22;5273;51.290;6.918;2023-06-14T00:38:49;19.00;50.10
10451;DHT22;5273;51.290;6.918;2023-06-14T00:41:16;19.00;49.70
10451;DHT22;5273;51.290;6.918;2023-06-14T00:43:43;18.90;50.10
10451;DHT22;5273;51.290;6.918;2023-06-14T00:46:09;19.00;50.20
10451;DHT22;5273;51.290;6.918;2023-06-14T00:48:37;18.90;50.40
10451;DHT22;5273;51.290;6.918;2023-06-14T00:51:04;18.90;50.50
10451;DHT22;5273;51.290;6.918;2023-06-14T00:53:32;18.90;50.80
10451;DHT22;5273;51.290;6.918;2023-06-14T00:56:01;18.80;50.90
10451;DHT22;5273;51.290;6.918;2023-06-14T00:58:28;18.80;51.10
10451;DHT22;5273;51.290;6.918;2023-06-14T01:00:55;18.80;50.70
10451;DHT22;5273;51.290;6.918;2023-06-14T01:03:23;18.70;50.90
10451;DHT22;5273;51.290;6.918;2023-06-14T01:05:53;18.70;50.90
10451;DHT22;5273;51.290;6.918;2023-06-14T01:08:31;18.70;51.10
10451;DHT22;5273;51.290;6.918;2023-06-14T01:11:09;18.70;51.30
10451;DHT22;5273;51.290;6.918;2023-06-14T01:13:39;18.60;51.10
10451;DHT22;5273;51.290;6.918;2023-06-14T01:16:07;18.60;51.50
10451;DHT22;5273;51.290;6.918;2023-06-14T01:18:34;18.60;51.50
10451;DHT22;5273;51.290;6.918;2023-06-14T01:21:02;18.60;51.00
10451;DHT22;5273;51.290;6.918;2023-06-14T01:23:32;18.60;51.10
10451;DHT22;5273;51.290;6.918;2023-06-14T01:26:00;18.50;51.10
10451;DHT22;5273;51.290;6.918;2023-06-14T01:28:28;18.50;51.10
10451;DHT22;5273;51.290;6.918;2023-06-14T01:31:00;18.50;51.50
10451;DHT22;5273;51.290;6.918;2023-06-14T01:33:30;18.40;51.70
10451;DHT22;5273;51.290;6.918;2023-06-14T01:35:58;18.40;52.90
10451;DHT22;5273;51.290;6.918;2023-06-14T01:38:26;18.30;53.00
10451;DHT22;5273;51.290;6.918;2023-06-14T01:40:57;18.20;53.30
10451;DHT22;5273;51.290;6.918;2023-06-14T01:43:25;18.20;53.00
10451;DHT22;5273;51.290;6.918;2023-06-14T01:45:53;18.10;53.00
10451;DHT22;5273;51.290;6.918;2023-06-14T01:48:20;18.00;53.00
10451;DHT22;5273;51.290;6.918;2023-06-14T01:50:48;18.00;53.30
10451;DHT22;5273;51.290;6.918;2023-06-14T01:53:15;17.90;53.20
10451;DHT22;5273;51.290;6.918;2023-06-14T01:55:42;17.80;53.10
10451;DHT22;5273;51.290;6.918;2023-06-14T01:58:11;17.80;53.10
10451;DHT22;5273;51.290;6.918;2023-06-14T02:00:38;17.80;52.90
10451;DHT22;5273;51.290;6.918;2023-06-14T02:03:06;17.90;52.90
10451;DHT22;5273;51.290;6.918;2023-06-14T02:05:32;17.90;52.90
10451;DHT22;5273;51.290;6.918;2023-06-14T02:08:00;17.90;52.90
10451;DHT22;5273;51.290;6.918;2023-06-14T02:10:27;17.80;53.00
10451;DHT22;5273;51.290;6.918;2023-06-14T02:12:53;17.80;53.10
10451;DHT22;5273;51.290;6.918;2023-06-14T02:15:22;17.70;53.10
10451;DHT22;5273;51.290;6.918;2023-06-14T02:17:48;17.70;53.50
10451;DHT22;5273;51.290;6.918;2023-06-14T02:20:16;17.70;53.40
10451;DHT22;5273;51.290;6.918;2023-06-14T02:22:43;17.60;53.90
10451;DHT22;5273;51.290;6.918;2023-06-14T02:25:10;17.60;53.30
10451;DHT22;5273;51.290;6.918;2023-06-14T02:27:37;17.60;53.30
10451;DHT22;5273;51.290;6.918;2023-06-14T02:30:05;17.60;52.90
10451;DHT22;5273;51.290;6.918;2023-06-14T02:32:34;17.60;52.90
10451;DHT22;5273;51.290;6.918;2023-06-14T02:35:01;17.60;52.60
10451;DHT22;5273;51.290;6.918;2023-06-14T02:37:27;17.50;52.30
10451;DHT22;5273;51.290;6.918;2023-06-14T02:39:55;17.60;52.20
10451;DHT22;5273;51.290;6.918;2023-06-14T02:42:22;17.60;52.10
10451;DHT22;5273;51.290;6.918;2023-06-14T02:44:49;17.60;52.10
10451;DHT22;5273;51.290;6.918;2023-06-14T02:47:17;17.60;52.20
10451;DHT22;5273;51.290;6.918;2023-06-14T02:49:45;17.60;52.10
10451;DHT22;5273;51.290;6.918;2023-06-14T02:52:13;17.60;51.90
10451;DHT22;5273;51.290;6.918;2023-06-14T02:54:39;17.60;52.10
10451;DHT22;5273;51.290;6.918;2023-06-14T02:57:07;17.60;52.20
10451;DHT22;5273;51.290;6.918;2023-06-14T02:59:33;17.50;52.30
10451;DHT22;5273;51.290;6.918;2023-06-14T03:02:00;17.50;52.30
10451;DHT22;5273;51.290;6.918;2023-06-14T03:04:28;17.40;52.60
10451;DHT22;5273;51.290;6.918;2023-06-14T03:07:04;17.40;52.70
10451;DHT22;5273;51.290;6.918;2023-06-14T03:09:34;17.30;52.70
10451;DHT22;5273;51.290;6.918;2023-06-14T03:12:01;17.30;52.80
10451;DHT22;5273;51.290;6.918;2023-06-14T03:14:29;17.30;52.70
10451;DHT22;5273;51.290;6.918;2023-06-14T03:16:56;17.30;53.00
10451;DHT22;5273;51.290;6.918;2023-06-14T03:19:23;17.30;52.80
10451;DHT22;5273;51.290;6.918;2023-06-14T03:21:49;17.30;53.00
10451;DHT22;5273;51.290;6.918;2023-06-14T03:24:18;17.20;53.00
10451;DHT22;5273;51.290;6.918;2023-06-14T03:26:45;17.20;53.00
10451;DHT22;5273;51.290;6.918;2023-06-14T03:29:12;17.20;53.30
10451;DHT22;5273;51.290;6.918;2023-06-14T03:31:56;17.10;53.00
10451;DHT22;5273;51.290;6.918;2023-06-14T03:34:23;17.10;53.50
10451;DHT22;5273;51.290;6.918;2023-06-14T03:36:50;17.10;52.90
10451;DHT22;5273;51.290;6.918;2023-06-14T03:39:18;17.10;52.90
10451;DHT22;5273;51.290;6.918;2023-06-14T03:41:45;17.10;53.20
10451;DHT22;5273;51.290;6.918;2023-06-14T03:44:15;17.10;53.10
10451;DHT22;5273;51.290;6.918;2023-06-14T03:46:42;17.10;53.00
10451;DHT22;5273;51.290;6.918;2023-06-14T03:49:09;17.10;53.30
10451;DHT22;5273;51.290;6.918;2023-06-14T03:51:36;17.10;53.60
10451;DHT22;5273;51.290;6.918;2023-06-14T03:54:03;17.10;53.50
10451;DHT22;5273;51.290;6.918;2023-06-14T03:56:31;17.10;53.30
10451;DHT22;5273;51.290;6.918;2023-06-14T03:58:58;17.10;53.20
10451;DHT22;5273;51.290;6.918;2023-06-14T04:01:25;17.20;53.30
10451;DHT22;5273;51.290;6.918;2023-06-14T04:03:55;17.10;53.00
10451;DHT22;5273;51.290;6.918;2023-06-14T04:06:22;17.10;53.00
10451;DHT22;5273;51.290;6.918;2023-06-14T04:08:50;17.10;52.90
10451;DHT22;5273;51.290;6.918;2023-06-14T04:11:18;17.10;52.90
10451;DHT22;5273;51.290;6.918;2023-06-14T04:13:46;17.10;53.20
10451;DHT22;5273;51.290;6.918;2023-06-14T04:16:13;17.20;53.60
10451;DHT22;5273;51.290;6.918;2023-06-14T04:18:40;17.20;53.50
10451;DHT22;5273;51.290;6.918;2023-06-14T04:21:07;17.20;53.70
10451;DHT22;5273;51.290;6.918;2023-06-14T04:23:34;17.20;54.00
10451;DHT22;5273;51.290;6.918;2023-06-14T04:26:01;17.20;54.30
10451;DHT22;5273;51.290;6.918;2023-06-14T04:28:28;17.20;54.50
10451;DHT22;5273;51.290;6.918;2023-06-14T04:30:57;17.20;54.70
10451;DHT22;5273;51.290;6.918;2023-06-14T04:33:27;17.20;54.90
10451;DHT22;5273;51.290;6.918;2023-06-14T04:35:54;17.20;55.00
10451;DHT22;5273;51.290;6.918;2023-06-14T04:38:21;17.10;54.80
10451;DHT22;5273;51.290;6.918;2023-06-14T04:40:50;17.20;55.20
10451;DHT22;5273;51.290;6.918;2023-06-14T04:43:18;17.10;55.70
10451;DHT22;5273;51.290;6.918;2023-06-14T04:45:52;17.10;56.00
10451;DHT22;5273;51.290;6.918;2023-06-14T04:48:21;17.20;56.00
10451;DHT22;5273;51.290;6.918;2023-06-14T04:50:48;17.10;55.90
10451;DHT22;5273;51.290;6.918;2023-06-14T04:53:18;17.10;55.60
10451;DHT22;5273;51.290;6.918;2023-06-14T04:55:47;17.10;55.40
10451;DHT22;5273;51.290;6.918;2023-06-14T04:58:14;17.20;55.40
10451;DHT22;5273;51.290;6.918;2023-06-14T05:00:40;17.20;55.50
10451;DHT22;5273;51.290;6.918;2023-06-14T05:03:09;17.20;55.40
10451;DHT22;5273;51.290;6.918;2023-06-14T05:05:40;17.30;55.30
10451;DHT22;5273;51.290;6.918;2023-06-14T05:08:07;17.30;54.80
10451;DHT22;5273;51.290;6.918;2023-06-14T05:10:34;17.40;55.10
10451;DHT22;5273;51.290;6.918;2023-06-14T05:13:01;17.50;54.90
10451;DHT22;5273;51.290;6.918;2023-06-14T05:15:28;17.60;55.50
10451;DHT22;5273;51.290;6.918;2023-06-14T05:17:55;17.70;54.70
10451;DHT22;5273;51.290;6.918;2023-06-14T05:20:22;17.80;54.80
10451;DHT22;5273;51.290;6.918;2023-06-14T05:22:52;17.90;54.30
10451;DHT22;5273;51.290;6.918;2023-06-14T05:25:19;18.10;55.50
10451;DHT22;5273;51.290;6.918;2023-06-14T05:27:47;18.10;54.70
10451;DHT22;5273;51.290;6.918;2023-06-14T05:30:14;18.30;53.90
10451;DHT22;5273;51.290;6.918;2023-06-14T05:32:41;18.40;53.60
10451;DHT22;5273;51.290;6.918;2023-06-14T05:35:08;18.60;54.00
10451;DHT22;5273;51.290;6.918;2023-06-14T05:37:36;18.70;53.50
10451;DHT22;5273;51.290;6.918;2023-06-14T05:40:05;18.80;53.30
10451;DHT22;5273;51.290;6.918;2023-06-14T05:42:33;19.00;52.60
10451;DHT22;5273;51.290;6.918;2023-06-14T05:44:59;19.10;52.10
10451;DHT22;5273;51.290;6.918;2023-06-14T05:47:26;19.20;52.00
10451;DHT22;5273;51.290;6.918;2023-06-14T05:49:54;19.30;52.40
10451;DHT22;5273;51.290;6.918;2023-06-14T05:52:20;19.50;51.90
10451;DHT22;5273;51.290;6.918;2023-06-14T05:54:47;19.70;51.50
10451;DHT22;5273;51.290;6.918;2023-06-14T05:57:16;19.80;50.50
10451;DHT22;5273;51.290;6.918;2023-06-14T05:59:42;19.90;50.10
10451;DHT22;5273;51.290;6.918;2023-06-14T06:02:09;20.00;50.00
10451;DHT22;5273;51.290;6.918;2023-06-14T06:04:36;20.10;49.50
10451;DHT22;5273;51.290;6.918;2023-06-14T06:07:03;20.20;49.90
10451;DHT22;5273;51.290;6.918;2023-06-14T06:09:30;20.50;49.20
10451;DHT22;5273;51.290;6.918;2023-06-14T06:11:57;20.90;48.60
10451;DHT22;5273;51.290;6.918;2023-06-14T06:14:25;21.20;48.10
10451;DHT22;5273;51.290;6.918;2023-06-14T06:16:53;21.40;47.10
10451;DHT22;5273;51.290;6.918;2023-06-14T06:19:20;21.70;47.00
10451;DHT22;5273;51.290;6.918;2023-06-14T06:21:47;22.00;46.50
10451;DHT22;5273;51.290;6.918;2023-06-14T06:24:14;22.30;45.10
10451;DHT22;5273;51.290;6.918;2023-06-14T06:26:40;22.60;44.80
10451;DHT22;5273;51.290;6.918;2023-06-14T06:29:07;23.10;44.90
10451;DHT22;5273;51.290;6.918;2023-06-14T06:31:36;23.60;43.40
10451;DHT22;5273;51.290;6.918;2023-06-14T06:34:03;24.00;42.90
10451;DHT22;5273;51.290;6.918;2023-06-14T06:36:29;24.50;42.80
10451;DHT22;5273;51.290;6.918;2023-06-14T06:38:56;25.10;40.80
10451;DHT22;5273;51.290;6.918;2023-06-14T06:41:23;25.60;39.80
10451;DHT22;5273;51.290;6.918;2023-06-14T06:43:50;25.70;38.70
10451;DHT22;5273;51.290;6.918;2023-06-14T06:46:16;26.10;38.70
10451;DHT22;5273;51.290;6.918;2023-06-14T06:48:46;26.40;37.90
10451;DHT22;5273;51.290;6.918;2023-06-14T06:51:12;26.50;36.80
10451;DHT22;5273;51.290;6.918;2023-06-14T06:53:41;26.70;37.20
10451;DHT22;5273;51.290;6.918;2023-06-14T06:56:08;26.80;37.50
10451;DHT22;5273;51.290;6.918;2023-06-14T06:58:35;27.30;36.90
10451;DHT22;5273;51.290;6.918;2023-06-14T07:01:02;27.60;36.30
10451;DHT22;5273;51.290;6.918;2023-06-14T07:03:28;27.60;35.90
10451;DHT22;5273;51.290;6.918;2023-06-14T07:05:57;27.40;34.90
10451;DHT22;5273;51.290;6.918;2023-06-14T07:08:23;27.30;35.30
10451;DHT22;5273;51.290;6.918;2023-06-14T07:10:50;27.60;35.20
10451;DHT22;5273;51.290;6.918;2023-06-14T07:13:17;28.00;34.40
10451;DHT22;5273;51.290;6.918;2023-06-14T07:15:44;28.10;34.30
10451;DHT22;5273;51.290;6.918;2023-06-14T07:18:11;28.30;33.80
10451;DHT22;5273;51.290;6.918;2023-06-14T07:20:38;28.70;33.20
10451;DHT22;5273;51.290;6.918;2023-06-14T07:23:07;29.10;33.50
10451;DHT22;5273;51.290;6.918;2023-06-14T07:25:34;29.20;31.70
10451;DHT22;5273;51.290;6.918;2023-06-14T07:28:01;28.90;31.90
10451;DHT22;5273;51.290;6.918;2023-06-14T07:30:27;28.50;32.10
10451;DHT22;5273;51.290;6.918;2023-06-14T07:32:55;28.70;32.70
10451;DHT22;5273;51.290;6.918;2023-06-14T07:35:22;28.80;32.00
10451;DHT22;5273;51.290;6.918;2023-06-14T07:37:49;28.70;32.50
10451;DHT22;5273;51.290;6.918;2023-06-14T07:40:17;28.80;31.90
10451;DHT22;5273;51.290;6.918;2023-06-14T07:42:44;28.80;32.00
10451;DHT22;5273;51.290;6.918;2023-06-14T07:45:13;29.50;31.40
10451;DHT22;5273;51.290;6.918;2023-06-14T07:47:40;30.20;31.40
10451;DHT22;5273;51.290;6.918;2023-06-14T07:50:07;30.90;30.10
10451;DHT22;5273;51.290;6.918;2023-06-14T07:52:34;31.30;29.10
10451;DHT22;5273;51.290;6.918;2023-06-14T07:55:01;31.40;29.20
10451;DHT22;5273;51.290;6.918;2023-06-14T07:57:29;31.40;28.30
10451;DHT22;5273;51.290;6.918;2023-06-14T07:59:56;31.40;29.50
10451;DHT22;5273;51.290;6.918;2023-06-14T08:02:23;31.70;28.60
10451;DHT22;5273;51.290;6.918;2023-06-14T08:04:49;31.70;28.30
10451;DHT22;5273;51.290;6.918;2023-06-14T08:07:16;31.70;28.40
10451;DHT22;5273;51.290;6.918;2023-06-14T08:09:43;32.20;28.50
10451;DHT22;5273;51.290;6.918;2023-06-14T08:12:10;32.10;28.20
10451;DHT22;5273;51.290;6.918;2023-06-14T08:14:39;31.90;28.50
10451;DHT22;5273;51.290;6.918;2023-06-14T08:17:06;32.30;28.30
10451;DHT22;5273;51.290;6.918;2023-06-14T08:19:32;32.80;28.30
10451;DHT22;5273;51.290;6.918;2023-06-14T08:21:59;33.50;28.20
10451;DHT22;5273;51.290;6.918;2023-06-14T08:24:26;33.50;27.70
10451;DHT22;5273;51.290;6.918;2023-06-14T08:26:53;33.60;27.90
10451;DHT22;5273;51.290;6.918;2023-06-14T08:29:20;34.30;27.70
10451;DHT22;5273;51.290;6.918;2023-06-14T08:31:48;35.10;26.70
10451;DHT22;5273;51.290;6.918;2023-06-14T08:34:15;35.30;26.50
10451;DHT22;5273;51.290;6.918;2023-06-14T08:36:42;35.70;26.40
10451;DHT22;5273;51.290;6.918;2023-06-14T08:39:08;36.40;25.80
10451;DHT22;5273;51.290;6.918;2023-06-14T08:41:36;36.00;25.80
10451;DHT22;5273;51.290;6.918;2023-06-14T08:44:03;35.40;25.20
10451;DHT22;5273;51.290;6.918;2023-06-14T08:46:31;34.80;26.00
10451;DHT22;5273;51.290;6.918;2023-06-14T08:49:01;34.40;26.20
10451;DHT22;5273;51.290;6.918;2023-06-14T08:51:31;34.10;26.90
10451;DHT22;5273;51.290;6.918;2023-06-14T08:54:00;34.40;27.50
10451;DHT22;5273;51.290;6.918;2023-06-14T08:56:29;34.80;26.80
10451;DHT22;5273;51.290;6.918;2023-06-14T08:58:57;35.30;26.30
10451;DHT22;5273;51.290;6.918;2023-06-14T09:01:26;35.60;25.60
10451;DHT22;5273;51.290;6.918;2023-06-14T09:03:53;36.00;25.40
10451;DHT22;5273;51.290;6.918;2023-06-14T09:06:24;36.30;25.20
10451;DHT22;5273;51.290;6.918;2023-06-14T09:08:51;36.00;25.30
10451;DHT22;5273;51.290;6.918;2023-06-14T09:11:19;36.00;25.00
10451;DHT22;5273;51.290;6.918;2023-06-14T09:13:46;36.20;24.60
10451;DHT22;5273;51.290;6.918;2023-06-14T09:16:13;36.00;24.10
10451;DHT22;5273;51.290;6.918;2023-06-14T09:18:41;36.20;25.00
10451;DHT22;5273;51.290;6.918;2023-06-14T09:21:10;36.70;24.10
10451;DHT22;5273;51.290;6.918;2023-06-14T09:23:39;37.20;23.40
10451;DHT22;5273;51.290;6.918;2023-06-14T09:26:10;37.70;23.70
10451;DHT22;5273;51.290;6.918;2023-06-14T09:28:41;38.10;22.40
10451;DHT22;5273;51.290;6.918;2023-06-14T09:31:08;38.30;22.50
10451;DHT22;5273;51.290;6.918;2023-06-14T09:33:36;38.30;22.50
10451;DHT22;5273;51.290;6.918;2023-06-14T09:36:03;38.30;22.40
10451;DHT22;5273;51.290;6.918;2023-06-14T09:38:30;37.80;22.60
10451;DHT22;5273;51.290;6.918;2023-06-14T09:40:59;36.80;23.60
10451;DHT22;5273;51.290;6.918;2023-06-14T09:43:26;37.10;24.40
10451;DHT22;5273;51.290;6.918;2023-06-14T09:45:54;36.90;23.80
10451;DHT22;5273;51.290;6.918;2023-06-14T09:48:21;37.00;23.90
10451;DHT22;5273;51.290;6.918;2023-06-14T09:50:50;37.20;23.10
10451;DHT22;5273;51.290;6.918;2023-06-14T09:53:21;36.20;23.70
10451;DHT22;5273;51.290;6.918;2023-06-14T09:55:49;35.70;24.30
10451;DHT22;5273;51.290;6.918;2023-06-14T09:58:20;35.60;24.00
10451;DHT22;5273;51.290;6.918;2023-06-14T10:00:50;34.90;24.40
10451;DHT22;5273;51.290;6.918;2023-06-14T10:03:29;33.80;25.60
10451;DHT22;5273;51.290;6.918;2023-06-14T10:05:58;33.40;25.50
10451;DHT22;5273;51.290;6.918;2023-06-14T10:08:30;33.70;26.30
10451;DHT22;5273;51.290;6.918;2023-06-14T10:10:59;34.70;24.90
10451;DHT22;5273;51.290;6.918;2023-06-14T10:13:29;34.60;24.70
10451;DHT22;5273;51.290;6.918;2023-06-14T10:16:07;34.70;26.20
10451;DHT22;5273;51.290;6.918;2023-06-14T10:18:43;35.40;24.80
10451;DHT22;5273;51.290;6.918;2023-06-14T10:21:18;36.20;24.80
10451;DHT22;5273;51.290;6.918;2023-06-14T10:23:48;37.00;24.40
10451;DHT22;5273;51.290;6.918;2023-06-14T10:26:20;36.80;22.90
10451;DHT22;5273;51.290;6.918;2023-06-14T10:28:59;35.70;24.10
10451;DHT22;5273;51.290;6.918;2023-06-14T10:31:42;35.30;24.30
10451;DHT22;5273;51.290;6.918;2023-06-14T10:34:10;34.90;24.20
10451;DHT22;5273;51.290;6.918;2023-06-14T10:36:38;34.00;25.60
10451;DHT22;5273;51.290;6.918;2023-06-14T10:39:08;33.80;25.80
10451;DHT22;5273;51.290;6.918;2023-06-14T10:41:36;33.80;25.70
10451;DHT22;5273;51.290;6.918;2023-06-14T10:44:32;34.20;25.80
10451;DHT22;5273;51.290;6.918;2023-06-14T10:47:00;34.10;26.00
10451;DHT22;5273;51.290;6.918;2023-06-14T10:49:41;33.90;26.10
10451;DHT22;5273;51.290;6.918;2023-06-14T10:52:09;33.30;26.00
10451;DHT22;5273;51.290;6.918;2023-06-14T10:57:38;31.50;29.30
10451;DHT22;5273;51.290;6.918;2023-06-14T11:00:08;30.80;30.50
10451;DHT22;5273;51.290;6.918;2023-06-14T11:03:15;30.30;30.10
10451;DHT22;5273;51.290;6.918;2023-06-14T11:05:52;29.70;31.10
10451;DHT22;5273;51.290;6.918;2023-06-14T11:08:37;29.10;32.60
10451;DHT22;5273;51.290;6.918;2023-06-14T11:11:06;28.50;31.90
10451;DHT22;5273;51.290;6.918;2023-06-14T11:13:33;27.80;35.20
10451;DHT22;5273;51.290;6.918;2023-06-14T11:16:02;27.90;34.30
10451;DHT22;5273;51.290;6.918;2023-06-14T11:18:29;28.00;35.30
10451;DHT22;5273;51.290;6.918;2023-06-14T11:20:55;28.10;35.60
10451;DHT22;5273;51.290;6.918;2023-06-14T11:23:22;28.10;34.10
10451;DHT22;5273;51.290;6.918;2023-06-14T11:25:50;27.50;34.20
10451;DHT22;5273;51.290;6.918;2023-06-14T11:28:17;27.50;35.60
10451;DHT22;5273;51.290;6.918;2023-06-14T11:30:45;27.50;34.70
10451;DHT22;5273;51.290;6.918;2023-06-14T11:33:16;27.40;35.80
10451;DHT22;5273;51.290;6.918;2023-06-14T11:35:44;27.30;35.90
10451;DHT22;5273;51.290;6.918;2023-06-14T11:38:11;27.10;37.00
10451;DHT22;5273;51.290;6.918;2023-06-14T11:40:38;27.10;35.70
10451;DHT22;5273;51.290;6.918;2023-06-14T11:43:05;27.10;35.70
10451;DHT22;5273;51.290;6.918;2023-06-14T11:45:32;27.30;36.50
10451;DHT22;5273;51.290;6.918;2023-06-14T11:47:59;27.50;35.70
10451;DHT22;5273;51.290;6.918;2023-06-14T11:50:28;27.40;34.60
10451;DHT22;5273;51.290;6.918;2023-06-14T11:52:55;27.30;35.60
10451;DHT22;5273;51.290;6.918;2023-06-14T11:55:22;27.00;35.40
10451;DHT22;5273;51.290;6.918;2023-06-14T11:57:50;26.80;35.40
10451;DHT22;5273;51.290;6.918;2023-06-14T12:00:18;26.80;36.60
10451;DHT22;5273;51.290;6.918;2023-06-14T12:02:52;27.10;37.50
10451;DHT22;5273;51.290;6.918;2023-06-14T12:05:21;27.10;36.70
10451;DHT22;5273;51.290;6.918;2023-06-14T12:07:50;27.10;36.30
10451;DHT22;5273;51.290;6.918;2023-06-14T12:10:19;26.80;36.50
10451;DHT22;5273;51.290;6.918;2023-06-14T12:12:46;26.60;38.50
10451;DHT22;5273;51.290;6.918;2023-06-14T12:15:12;26.50;38.10
10451;DHT22;5273;51.290;6.918;2023-06-14T12:17:39;26.60;38.40
10451;DHT22;5273;51.290;6.918;2023-06-14T12:20:10;26.50;37.70
10451;DHT22;5273;51.290;6.918;2023-06-14T12:22:39;26.40;38.50
10451;DHT22;5273;51.290;6.918;2023-06-14T12:25:08;26.40;38.80
10451;DHT22;5273;51.290;6.918;2023-06-14T12:27:35;26.60;39.60
10451;DHT22;5273;51.290;6.918;2023-06-14T12:30:03;26.70;37.90
10451;DHT22;5273;51.290;6.918;2023-06-14T12:32:30;26.80;36.60
10451;DHT22;5273;51.290;6.918;2023-06-14T12:34:57;27.00;38.40
10451;DHT22;5273;51.290;6.918;2023-06-14T12:37:24;27.20;38.20
10451;DHT22;5273;51.290;6.918;2023-06-14T12:39:51;27.20;37.20
10451;DHT22;5273;51.290;6.918;2023-06-14T12:42:19;27.20;38.20
10451;DHT22;5273;51.290;6.918;2023-06-14T12:44:46;27.00;36.90
10451;DHT22;5273;51.290;6.918;2023-06-14T12:47:12;26.80;38.00
10451;DHT22;5273;51.290;6.918;2023-06-14T12:49:39;26.80;38.30
10451;DHT22;5273;51.290;6.918;2023-06-14T12:52:08;26.90;37.70
10451;DHT22;5273;51.290;6.918;2023-06-14T12:54:35;26.80;38.30
10451;DHT22;5273;51.290;6.918;2023-06-14T12:57:02;26.90;38.30
10451;DHT22;5273;51.290;6.918;2023-06-14T12:59:31;26.90;37.70
10451;DHT22;5273;51.290;6.918;2023-06-14T13:02:09;27.00;38.70
10451;DHT22;5273;51.290;6.918;2023-06-14T13:04:36;27.10;38.50
10451;DHT22;5273;51.290;6.918;2023-06-14T13:07:04;27.30;38.60
10451;DHT22;5273;51.290;6.918;2023-06-14T13:09:30;27.30;37.70
10451;DHT22;5273;51.290;6.918;2023-06-14T13:11:57;27.10;38.40
10451;DHT22;5273;51.290;6.918;2023-06-14T13:14:24;27.00;37.80
10451;DHT22;5273;51.290;6.918;2023-06-14T13:16:53;27.00;37.90
10451;DHT22;5273;51.290;6.918;2023-06-14T13:19:20;26.90;37.70
10451;DHT22;5273;51.290;6.918;2023-06-14T13:21:48;26.80;38.20
10451;DHT22;5273;51.290;6.918;2023-06-14T13:24:14;26.40;38.80
10451;DHT22;5273;51.290;6.918;2023-06-14T13:26:42;26.40;39.80
10451;DHT22;5273;51.290;6.918;2023-06-14T13:29:09;26.40;39.50
10451;DHT22;5273;51.290;6.918;2023-06-14T13:31:35;26.30;38.70
10451;DHT22;5273;51.290;6.918;2023-06-14T13:34:04;26.20;39.80
10451;DHT22;5273;51.290;6.918;2023-06-14T13:36:31;26.10;38.80
10451;DHT22;5273;51.290;6.918;2023-06-14T13:38:57;26.20;39.80
10451;DHT22;5273;51.290;6.918;2023-06-14T13:41:25;26.30;38.10
10451;DHT22;5273;51.290;6.918;2023-06-14T13:43:57;26.20;38.60
10451;DHT22;5273;51.290;6.918;2023-06-14T13:46:24;26.30;40.80
10451;DHT22;5273;51.290;6.918;2023-06-14T13:48:51;26.40;38.20
10451;DHT22;5273;51.290;6.918;2023-06-14T13:51:19;26.30;39.30
10451;DHT22;5273;51.290;6.918;2023-06-14T13:53:46;26.30;39.40
10451;DHT22;5273;51.290;6.918;2023-06-14T13:56:13;26.30;38.10
10451;DHT22;5273;51.290;6.918;2023-06-14T13:58:40;26.20;38.70
10451;DHT22;5273;51.290;6.918;2023-06-14T14:01:08;26.30;38.90
10451;DHT22;5273;51.290;6.918;2023-06-14T14:03:35;26.30;39.10
10451;DHT22;5273;51.290;6.918;2023-06-14T14:06:02;26.50;39.50
10451;DHT22;5273;51.290;6.918;2023-06-14T14:08:30;26.60;38.20
10451;DHT22;5273;51.290;6.918;2023-06-14T14:10:58;26.40;37.40
10451;DHT22;5273;51.290;6.918;2023-06-14T14:13:24;26.20;38.80
10451;DHT22;5273;51.290;6.918;2023-06-14T14:15:51;26.20;38.30
10451;DHT22;5273;51.290;6.918;2023-06-14T14:18:18;26.00;38.60
10451;DHT22;5273;51.290;6.918;2023-06-14T14:20:46;25.90;37.80
10451;DHT22;5273;51.290;6.918;2023-06-14T14:23:13;25.80;39.50
10451;DHT22;5273;51.290;6.918;2023-06-14T14:25:41;25.70;39.90
10451;DHT22;5273;51.290;6.918;2023-06-14T14:28:08;25.80;39.60
10451;DHT22;5273;51.290;6.918;2023-06-14T14:30:35;25.80;39.20
10451;DHT22;5273;51.290;6.918;2023-06-14T14:33:05;26.00;39.50
10451;DHT22;5273;51.290;6.918;2023-06-14T14:35:32;26.10;39.50
10451;DHT22;5273;51.290;6.918;2023-06-14T14:37:58;26.20;39.00
10451;DHT22;5273;51.290;6.918;2023-06-14T14:40:25;26.30;39.50
10451;DHT22;5273;51.290;6.918;2023-06-14T14:42:54;26.30;38.50
10451;DHT22;5273;51.290;6.918;2023-06-14T14:45:21;26.20;39.40
10451;DHT22;5273;51.290;6.918;2023-06-14T14:47:48;26.30;37.80
10451;DHT22;5273;51.290;6.918;2023-06-14T14:50:15;26.30;39.20
10451;DHT22;5273;51.290;6.918;2023-06-14T14:52:42;26.30;38.10
10451;DHT22;5273;51.290;6.918;2023-06-14T14:55:09;26.20;38.30
10451;DHT22;5273;51.290;6.918;2023-06-14T14:57:36;26.20;38.40
10451;DHT22;5273;51.290;6.918;2023-06-14T15:00:05;26.20;38.60
10451;DHT22;5273;51.290;6.918;2023-06-14T15:02:33;26.20;38.30
10451;DHT22;5273;51.290;6.918;2023-06-14T15:05:00;26.20;37.90
10451;DHT22;5273;51.290;6.918;2023-06-14T15:07:28;26.20;39.10
10451;DHT22;5273;51.290;6.918;2023-06-14T15:09:55;26.30;39.20
10451;DHT22;5273;51.290;6.918;2023-06-14T15:12:21;26.30;38.80
10451;DHT22;5273;51.290;6.918;2023-06-14T15:14:50;26.30;38.30
10451;DHT22;5273;51.290;6.918;2023-06-14T15:17:19;26.30;38.10
10451;DHT22;5273;51.290;6.918;2023-06-14T15:19:46;26.30;38.10
10451;DHT22;5273;51.290;6.918;2023-06-14T15:22:13;26.30;38.90
10451;DHT22;5273;51.290;6.918;2023-06-14T15:24:41;26.30;37.90
10451;DHT22;5273;51.290;6.918;2023-06-14T15:27:07;26.10;38.50
10451;DHT22;5273;51.290;6.918;2023-06-14T15:29:35;26.10;39.30
10451;DHT22;5273;51.290;6.918;2023-06-14T15:32:01;26.10;38.70
10451;DHT22;5273;51.290;6.918;2023-06-14T15:34:29;26.00;38.60
10451;DHT22;5273;51.290;6.918;2023-06-14T15:36:56;25.90;39.40
10451;DHT22;5273;51.290;6.918;2023-06-14T15:39:23;26.10;39.60
10451;DHT22;5273;51.290;6.918;2023-06-14T15:41:52;26.20;40.30
10451;DHT22;5273;51.290;6.918;2023-06-14T15:44:19;26.30;39.10
10451;DHT22;5273;51.290;6.918;2023-06-14T15:46:46;26.10;38.10
10451;DHT22;5273;51.290;6.918;2023-06-14T15:49:13;25.90;39.00
10451;DHT22;5273;51.290;6.918;2023-06-14T15:51:41;25.90;38.70
10451;DHT22;5273;51.290;6.918;2023-06-14T15:54:08;25.90;39.80